Latest Weather Observations for Kurnell

IDN60801

Issued at 8:35 am EDT Saturday 1 November 2014 (issued every 30 minutes, with the page automatically refreshed every 10 minutes)

About weather observations | Map of weather stations | Latest weather observations for NSW | Other Formats
Station Details ID: 066043 Name: KURNELL AWS Lat: -34.00 Lon: 151.21 Height: 4.0 m
Data from the previous 72 hours. | See also: Recent months for locations in New South Wales
Date/Time
EDT
Temp
°C
App
Temp
°C
Dew
Point
Rel
Hum
%
Delta-T
°C
Wind Press
QNH
hPa
Press
MSL
hPa
Rain
since 9 am
mm
Dir
 
Spd
km/h
Gust
km/h
Spd
kts
Gust
kts
01/08:30am - - - - - N 32 37 17 20 - - -
01/08:00am - - - - - N 32 41 17 22 - - -
01/07:30am - - - - - N 28 33 15 18 - - -
01/07:00am - - - - - N 28 32 15 17 - - -
01/06:30am - - - - - N 32 37 17 20 - - -
01/06:00am - - - - - N 30 39 16 21 - - -
01/05:30am - - - - - N 30 35 16 19 - - -
01/05:00am - - - - - N 22 30 12 16 - - -
01/04:30am - - - - - NW 24 28 13 15 - - -
01/04:00am - - - - - N 19 22 10 12 - - -
01/03:30am - - - - - NNW 22 28 12 15 - - -
01/03:00am - - - - - NNW 24 30 13 16 - - -
01/02:00am - - - - - NW 13 17 7 9 - - -
01/01:30am - - - - - N 11 15 6 8 - - -
01/01:00am - - - - - NE 17 19 9 10 - - -
01/12:30am - - - - - NNE 26 30 14 16 - - -
01/12:00am - - - - - NNE 19 26 10 14 - - -
 
Date/Time
EDT
Temp
°C
App
Temp
°C
Dew
Point
Rel
Hum
%
Delta-T
°C
Wind Press
QNH
hPa
Press
MSL
hPa
Rain
since 9 am
mm
Dir
 
Spd
km/h
Gust
km/h
Spd
kts
Gust
kts
31/11:30pm - - - - - NNE 24 30 13 16 - - -
31/11:00pm - - - - - NNE 26 32 14 17 - - -
31/10:30pm - - - - - NE 33 41 18 22 - - -
31/10:00pm - - - - - NE 35 43 19 23 - - -
31/09:30pm - - - - - NE 37 46 20 25 - - -
31/09:00pm - - - - - NE 35 41 19 22 - - -
31/08:30pm - - - - - NE 35 44 19 24 - - -
31/08:00pm - - - - - NE 30 35 16 19 - - -
31/07:30pm - - - - - NE 30 37 16 20 - - -
31/07:00pm - - - - - NE 24 32 13 17 - - -
31/06:30pm - - - - - NE 24 32 13 17 - - -
31/06:00pm - - - - - NE 37 48 20 26 - - -
31/05:30pm - - - - - NE 41 50 22 27 - - -
31/05:00pm - - - - - NE 39 46 21 25 - - -
31/04:30pm - - - - - NE 35 48 19 26 - - -
31/04:00pm - - - - - ENE 32 37 17 20 - - -
31/03:30pm - - - - - NE 32 37 17 20 - - -
31/03:00pm - - - - - NE 32 37 17 20 - - -
31/02:30pm - - - - - ENE 30 37 16 20 - - -
31/02:00pm - - - - - ENE 28 33 15 18 - - -
31/01:30pm - - - - - ENE 30 33 16 18 - - -
31/01:00pm - - - - - E 26 28 14 15 - - -
31/12:30pm - - - - - E 26 30 14 16 - - -
31/12:00pm - - - - - E 20 24 11 13 - - -
31/11:30am - - - - - E 17 19 9 10 - - -
31/11:00am - - - - - CALM 0 0 0 0 - - -
31/10:30am - - - - - CALM 0 0 0 0 - - -
31/10:00am - - - - - CALM 0 0 0 0 - - -
31/09:30am - - - - - WNW 9 11 5 6 - - -
31/09:00am - - - - - WNW 11 13 6 7 - - -
31/08:30am - - - - - WNW 11 13 6 7 - - -
31/08:00am - - - - - NW 11 11 6 6 - - -
31/07:30am - - - - - WNW 11 13 6 7 - - -
31/07:00am - - - - - W 13 13 7 7 - - -
31/06:30am - - - - - W 9 11 5 6 - - -
31/06:00am - - - - - WNW 11 13 6 7 - - -
31/05:30am - - - - - W 9 11 5 6 - - -
31/05:00am - - - - - SSW 13 17 7 9 - - -
31/04:30am - - - - - S 13 15 7 8 - - -
31/04:00am - - - - - S 13 17 7 9 - - -
31/03:30am - - - - - S 15 19 8 10 - - -
31/03:00am - - - - - S 15 17 8 9 - - -
31/02:30am - - - - - S 13 15 7 8 - - -
31/02:00am - - - - - SSW 6 13 3 7 - - -
31/01:30am - - - - - S 7 9 4 5 - - -
31/01:00am - - - - - SSW 4 9 2 5 - - -
31/12:30am - - - - - NNE 9 11 5 6 - - -
31/12:00am - - - - - NNE 13 17 7 9 - - -
 
Date/Time
EDT
Temp
°C
App
Temp
°C
Dew
Point
Rel
Hum
%
Delta-T
°C
Wind Press
QNH
hPa
Press
MSL
hPa
Rain
since 9 am
mm
Dir
 
Spd
km/h
Gust
km/h
Spd
kts
Gust
kts
30/11:30pm - - - - - NE 13 15 7 8 - - -
30/11:00pm - - - - - NE 13 15 7 8 - - -
30/10:30pm - - - - - E 9 13 5 7 - - -
30/10:00pm - - - - - E 11 13 6 7 - - -
30/09:30pm - - - - - E 11 19 6 10 - - -
30/09:00pm - - - - - NE 17 20 9 11 - - -
30/08:30pm - - - - - NE 20 26 11 14 - - -
30/08:00pm - - - - - NE 17 22 9 12 - - -
30/07:30pm - - - - - NE 20 28 11 15 - - -
30/07:00pm - - - - - NE 26 32 14 17 - - -
30/06:30pm - - - - - ENE 26 30 14 16 - - -
30/06:00pm - - - - - NE 28 35 15 19 - - -
30/05:30pm - - - - - NE 33 37 18 20 - - -
30/05:00pm - - - - - NE 26 32 14 17 - - -
30/04:30pm - - - - - NE 28 32 15 17 - - -
30/04:00pm - - - - - NE 26 30 14 16 - - -
30/03:30pm - - - - - NE 24 33 13 18 - - -
30/03:00pm - - - - - ENE 22 28 12 15 - - -
30/02:30pm - - - - - ENE 19 24 10 13 - - -
30/02:00pm - - - - - ENE 20 26 11 14 - - -
30/01:30pm - - - - - ENE 19 26 10 14 - - -
30/01:00pm - - - - - NW 13 17 7 9 - - -
30/12:30pm - - - - - WNW 24 30 13 16 - - -
30/12:00pm - - - - - WNW 24 32 13 17 - - -
30/11:30am - - - - - NE 7 9 4 5 - - -
30/11:00am - - - - - N 6 7 3 4 - - -
30/10:30am - - - - - N 7 11 4 6 - - -
30/10:00am - - - - - NNW 9 11 5 6 - - -
30/09:30am - - - - - NW 11 13 6 7 - - -
30/09:00am - - - - - WNW 15 17 8 9 - - -
30/08:30am - - - - - WNW 15 17 8 9 - - -
30/08:00am - - - - - WNW 17 20 9 11 - - -
30/07:30am - - - - - WNW 17 22 9 12 - - -
30/07:00am - - - - - NW 15 17 8 9 - - -
30/06:30am - - - - - NW 13 13 7 7 - - -
30/06:00am - - - - - WNW 9 11 5 6 - - -
30/05:30am - - - - - W 9 11 5 6 - - -
30/05:00am - - - - - NW 9 11 5 6 - - -
30/04:30am - - - - - NW 9 11 5 6 - - -
30/04:00am - - - - - NNW 9 9 5 5 - - -
30/03:30am - - - - - NW 9 11 5 6 - - -
30/03:00am - - - - - NNW 11 13 6 7 - - -
30/02:30am - - - - - N 13 15 7 8 - - -
30/02:00am - - - - - N 17 19 9 10 - - -
30/01:30am - - - - - NNE 17 19 9 10 - - -
30/01:00am - - - - - N 17 19 9 10 - - -
30/12:30am - - - - - NNE 19 26 10 14 - - -
30/12:00am - - - - - NNE 19 22 10 12 - - -
 
Date/Time
EDT
Temp
°C
App
Temp
°C
Dew
Point
Rel
Hum
%
Delta-T
°C
Wind Press
QNH
hPa
Press
MSL
hPa
Rain
since 9 am
mm
Dir
 
Spd
km/h
Gust
km/h
Spd
kts
Gust
kts
29/11:30pm - - - - - NNE 19 26 10 14 - - -
29/11:00pm - - - - - NNE 20 26 11 14 - - -
29/10:30pm - - - - - NNE 22 28 12 15 - - -
29/10:00pm - - - - - NE 19 24 10 13 - - -
29/09:30pm - - - - - NE 20 26 11 14 - - -
29/09:00pm - - - - - NE 24 30 13 16 - - -
29/08:30pm - - - - - NE 22 28 12 15 - - -
29/08:00pm - - - - - NE 22 30 12 16 - - -
29/07:30pm - - - - - ENE 22 28 12 15 - - -
29/07:00pm - - - - - ENE 24 28 13 15 - - -
29/06:30pm - - - - - ENE 24 28 13 15 - - -
29/06:00pm - - - - - E 26 32 14 17 - - -
29/05:30pm - - - - - ENE 28 33 15 18 - - -
29/05:00pm - - - - - ENE 28 33 15 18 - - -
29/04:30pm - - - - - E 28 33 15 18 - - -
29/04:00pm - - - - - E 28 35 15 19 - - -
29/03:30pm - - - - - E 28 33 15 18 - - -
29/03:00pm - - - - - E 28 32 15 17 - - -
29/02:30pm - - - - - E 30 33 16 18 - - -
29/02:00pm - - - - - E 28 33 15 18 - - -
29/01:30pm - - - - - E 24 30 13 16 - - -
29/01:00pm - - - - - E 24 30 13 16 - - -
29/12:30pm - - - - - E 19 28 10 15 - - -
29/12:00pm - - - - - SE 22 28 12 15 - - -
29/11:30am - - - - - ESE 17 26 9 14 - - -
29/11:00am - - - - - S 17 26 9 14 - - -
29/10:30am - - - - - S 17 26 9 14 - - -
29/10:00am - - - - - SSW 26 32 14 17 - - -
29/09:30am - - - - - SSW 26 32 14 17 - - -
29/09:00am - - - - - SSW 19 22 10 12 - - -

Other Formats:

Comma delimited format used in spreadsheet applications
http://www.bom.gov.au/fwo/IDN60801/IDN60801.95756.axf

JavaScript Object Notation format (JSON) in row-major order
http://www.bom.gov.au/fwo/IDN60801/IDN60801.95756.json